Terminal Aerodrome Forecast
Issued by NWS

Home | Current Version | Previous Version | Text Only | Print | Product List | Glossary On
Versions: 1 2 3 4 5 6 7 8 9 10 11 12 13 14 15 16
000
FTUS44 KTSA 260400 AAA
TAFFYV
TAF AMD
KFYV 260413Z 2604/2624 17003KT 5SM BR SKC
     FM260700 00000KT 3SM BR SKC
      TEMPO 2609/2613 1SM BR
     FM261400 18006KT P6SM SKC
     FM261900 19012G20KT P6SM SKC=

USA.gov is the U.S. government's official web portal to all federal, state and local government web resources and services.